Time;durP1;ratioP1;P1;durP2;ratioP2;P2;SDS_P1;SDS_P2;PMS_P1;PMS_P2;Temp;Humidity;BMP_temperature;BMP_pressure;BME280_temperature;BME280_humidity;BME280_pressure;Samples;Min_cycle;Max_cycle;Signal;HPM_P1;HPM_P2
2022/05/05 00:01:51;;;;;;;;;;;13.20;99.90;;;;;;5053304;28;19905;-78
2022/05/05 00:04:19;;;;;;;;;;;13.50;99.90;;;;;;5054549;28;19955;-77
2022/05/05 00:06:45;;;;;;;;;;;13.60;99.90;;;;;;5054624;28;19916;-76
2022/05/05 00:09:10;;;;;;;;;;;13.50;99.90;;;;;;5054578;28;20324;-78
2022/05/05 00:14:24;;;;;;;;;;;13.40;99.90;;;;;;5054169;28;20293;-79
2022/05/05 00:16:52;;;;;;;;;;;13.60;99.90;;;;;;5054586;28;19904;-79
2022/05/05 00:19:19;;;;;;;;;;;13.80;99.90;;;;;;5054386;28;19912;-77
2022/05/05 00:21:46;;;;;;;;;;;13.80;99.90;;;;;;5054086;28;19908;-78
2022/05/05 00:24:13;;;;;;;;;;;13.90;99.90;;;;;;5054418;28;19912;-76
2022/05/05 00:26:39;;;;;;;;;;;13.90;99.90;;;;;;5054351;28;19905;-78
2022/05/05 00:29:06;;;;;;;;;;;14.10;99.90;;;;;;5054231;28;19999;-77
2022/05/05 00:31:32;;;;;;;;;;;14.20;99.90;;;;;;5052807;28;20376;-78
2022/05/05 00:33:59;;;;;;;;;;;14.20;99.90;;;;;;5054057;28;19999;-77
2022/05/05 00:36:25;;;;;;;;;;;14.20;99.90;;;;;;5054817;28;20062;-77
2022/05/05 00:38:52;;;;;;;;;;;13.90;99.90;;;;;;5052951;28;20003;-76
2022/05/05 00:41:18;;;;;;;;;;;13.60;99.90;;;;;;5054452;28;19908;-77
2022/05/05 00:43:45;;;;;;;;;;;13.50;99.90;;;;;;5054161;28;19944;-78
2022/05/05 00:46:12;;;;;;;;;;;13.40;99.90;;;;;;5054834;28;19905;-79
2022/05/05 00:48:40;;;;;;;;;;;13.50;99.90;;;;;;5054270;28;19909;-76
2022/05/05 00:51:07;;;;;;;;;;;13.90;99.90;;;;;;5053907;28;19991;-77
2022/05/05 00:53:33;;;;;;;;;;;14.10;99.90;;;;;;5053770;28;19977;-77
2022/05/05 00:56:04;;;;;;;;;;;14.30;99.90;;;;;;5052410;28;20003;-76
2022/05/05 00:58:31;;;;;;;;;;;14.10;99.90;;;;;;5053869;28;19905;-77
2022/05/05 01:01:05;;;;;;;;;;;14.10;99.90;;;;;;5053695;28;19905;-75
2022/05/05 01:03:34;;;;;;;;;;;14.20;99.90;;;;;;5053828;28;19909;-77
2022/05/05 01:06:01;;;;;;;;;;;14.30;99.90;;;;;;5053723;28;20038;-79
2022/05/05 01:08:27;;;;;;;;;;;14.20;99.90;;;;;;5053635;28;19905;-78
2022/05/05 01:10:54;;;;;;;;;;;14.20;99.90;;;;;;5053558;28;19912;-78
2022/05/05 01:13:25;;;;;;;;;;;14.40;99.90;;;;;;5053940;28;19951;-77
2022/05/05 01:15:53;;;;;;;;;;;14.40;99.90;;;;;;5053472;28;19905;-77
2022/05/05 01:18:20;;;;;;;;;;;14.50;99.90;;;;;;5052201;28;19987;-77
2022/05/05 01:20:48;;;;;;;;;;;14.60;99.90;;;;;;5053541;28;19904;-79
2022/05/05 01:23:15;;;;;;;;;;;14.60;99.90;;;;;;5053381;28;20007;-77
2022/05/05 01:28:28;;;;;;;;;;;14.60;99.90;;;;;;5053588;28;19989;-78
2022/05/05 01:30:57;;;;;;;;;;;14.70;99.90;;;;;;5052166;28;19963;-78
2022/05/05 01:33:26;;;;;;;;;;;14.30;99.90;;;;;;5056585;28;19955;-78
2022/05/05 01:35:57;;;;;;;;;;;14.10;99.90;;;;;;5057469;28;20357;-76
2022/05/05 01:38:36;;;;;;;;;;;14.30;99.90;;;;;;5073070;28;19920;-76
2022/05/05 01:41:07;;;;;;;;;;;14.40;99.90;;;;;;5077652;28;20384;-76
2022/05/05 01:43:34;;;;;;;;;;;14.50;99.90;;;;;;5077564;28;19909;-78
2022/05/05 01:46:01;;;;;;;;;;;14.50;99.90;;;;;;5077420;28;20410;-78
2022/05/05 01:48:28;;;;;;;;;;;14.40;99.90;;;;;;5077265;28;20482;-78
2022/05/05 01:50:54;;;;;;;;;;;14.40;99.90;;;;;;5059255;28;19905;-78
2022/05/05 01:53:24;;;;;;;;;;;14.30;99.90;;;;;;5077274;28;19904;-77
2022/05/05 01:55:51;;;;;;;;;;;14.40;99.90;;;;;;5077034;28;19905;-78
2022/05/05 01:58:19;;;;;;;;;;;14.40;99.90;;;;;;5077047;28;19954;-78
2022/05/05 02:00:45;;;;;;;;;;;14.60;99.90;;;;;;5077255;28;19905;-76
2022/05/05 02:03:13;;;;;;;;;;;14.70;99.90;;;;;;5077174;28;19964;-78
2022/05/05 02:05:43;;;;;;;;;;;14.70;99.90;;;;;;5058969;28;19911;-77
2022/05/05 02:08:10;;;;;;;;;;;14.80;99.90;;;;;;5076819;28;20379;-79
2022/05/05 02:10:37;;;;;;;;;;;14.80;99.90;;;;;;5076906;28;19911;-79
2022/05/05 02:13:05;;;;;;;;;;;14.90;99.90;;;;;;5076769;28;19904;-78
2022/05/05 02:15:34;;;;;;;;;;;15.10;99.90;;;;;;5058641;28;19952;-78
2022/05/05 02:18:11;;;;;;;;;;;15.10;99.90;;;;;;5076630;28;19911;-77
2022/05/05 02:20:39;;;;;;;;;;;15.10;99.90;;;;;;5076603;28;19905;-78
2022/05/05 02:23:07;;;;;;;;;;;14.60;99.90;;;;;;5076467;28;19977;-77
2022/05/05 02:25:38;;;;;;;;;;;14.20;99.90;;;;;;5076588;28;19905;-79
2022/05/05 02:28:07;;;;;;;;;;;13.90;99.90;;;;;;5076480;28;20387;-77
2022/05/05 02:30:34;;;;;;;;;;;13.90;99.90;;;;;;5076620;28;19904;-77
2022/05/05 02:33:01;;;;;;;;;;;14.30;99.90;;;;;;5076393;28;19905;-77
2022/05/05 02:35:31;;;;;;;;;;;14.20;99.90;;;;;;5076343;28;20360;-77
2022/05/05 02:40:42;;;;;;;;;;;14.00;99.90;;;;;;5075999;28;20390;-78
2022/05/05 02:43:08;;;;;;;;;;;14.20;99.90;;;;;;5076011;28;19908;-77
2022/05/05 02:45:35;;;;;;;;;;;14.20;99.90;;;;;;5076148;28;20276;-79
2022/05/05 02:48:04;;;;;;;;;;;14.30;99.90;;;;;;5076118;28;19905;-78
2022/05/05 02:50:31;;;;;;;;;;;14.20;99.90;;;;;;5076042;28;20269;-78
2022/05/05 02:54:46;;;;;;;;;;;14.10;99.90;;;;;;5075994;28;19904;-78
2022/05/05 02:55:48;;;;;;;;;;;13.90;99.90;;;;;;5075510;28;19904;-78
2022/05/05 02:58:18;;;;;;;;;;;13.80;99.90;;;;;;5076360;28;19904;-79
2022/05/05 03:00:48;;;;;;;;;;;13.90;99.90;;;;;;5075859;28;19951;-78
2022/05/05 03:03:15;;;;;;;;;;;13.70;99.90;;;;;;5076058;28;19999;-78
2022/05/05 03:05:42;;;;;;;;;;;13.60;99.90;;;;;;5075798;28;19905;-76
2022/05/05 03:08:09;;;;;;;;;;;13.90;99.90;;;;;;5075750;28;19911;-80
2022/05/05 03:10:39;;;;;;;;;;;13.90;99.90;;;;;;5075605;28;19911;-79
2022/05/05 03:13:05;;;;;;;;;;;13.70;99.90;;;;;;5075931;28;19965;-79
2022/05/05 03:15:32;;;;;;;;;;;13.80;99.90;;;;;;5075558;28;20003;-77
2022/05/05 03:17:59;;;;;;;;;;;14.00;99.90;;;;;;5075519;28;19926;-78
2022/05/05 03:20:25;;;;;;;;;;;14.40;99.90;;;;;;5075537;28;19944;-77
2022/05/05 03:22:56;;;;;;;;;;;14.40;99.90;;;;;;5075389;28;19987;-77
2022/05/05 03:25:23;;;;;;;;;;;14.30;99.90;;;;;;5075642;28;20375;-76
2022/05/05 03:27:49;;;;;;;;;;;14.20;99.90;;;;;;5075507;28;19999;-80
2022/05/05 03:30:17;;;;;;;;;;;13.90;99.90;;;;;;5075441;28;19909;-77
2022/05/05 03:32:43;;;;;;;;;;;13.80;99.90;;;;;;5075373;28;19999;-78
2022/05/05 03:35:11;;;;;;;;;;;13.80;99.90;;;;;;5075249;28;19912;-77
2022/05/05 03:37:37;;;;;;;;;;;14.00;99.90;;;;;;5074846;28;20376;-78
2022/05/05 03:40:08;;;;;;;;;;;14.20;99.90;;;;;;5075537;28;19911;-79
2022/05/05 03:42:35;;;;;;;;;;;14.40;99.90;;;;;;5075247;28;19911;-76
2022/05/05 03:45:02;;;;;;;;;;;14.40;99.90;;;;;;5074906;28;19915;-78
2022/05/05 03:47:28;;;;;;;;;;;14.40;99.90;;;;;;5075156;28;20365;-79
2022/05/05 03:49:55;;;;;;;;;;;14.40;99.90;;;;;;5075268;28;19904;-78
2022/05/05 03:52:22;;;;;;;;;;;14.40;99.90;;;;;;5075073;28;20249;-79
2022/05/05 03:54:48;;;;;;;;;;;14.50;99.90;;;;;;5074294;28;20009;-78
2022/05/05 03:57:18;;;;;;;;;;;14.60;99.90;;;;;;5074756;28;19911;-77
2022/05/05 03:59:44;;;;;;;;;;;14.40;99.90;;;;;;5074744;28;20281;-77
2022/05/05 04:02:10;;;;;;;;;;;14.50;99.90;;;;;;5074659;28;19911;-78
2022/05/05 04:04:36;;;;;;;;;;;14.50;99.90;;;;;;5074526;28;19915;-77
2022/05/05 04:07:02;;;;;;;;;;;14.40;99.90;;;;;;5074562;28;19927;-76
2022/05/05 04:09:29;;;;;;;;;;;14.20;99.90;;;;;;5074842;28;19904;-77
2022/05/05 04:11:56;;;;;;;;;;;14.10;99.90;;;;;;5074495;28;19912;-78
2022/05/05 04:14:23;;;;;;;;;;;14.00;99.90;;;;;;5074420;28;19999;-78
2022/05/05 04:16:49;;;;;;;;;;;14.00;99.90;;;;;;5074422;28;19966;-79
2022/05/05 04:19:16;;;;;;;;;;;13.90;99.90;;;;;;5074495;28;19908;-78
2022/05/05 04:21:43;;;;;;;;;;;13.90;99.90;;;;;;5074313;28;19905;-79
2022/05/05 04:24:09;;;;;;;;;;;13.90;99.90;;;;;;5074117;28;19908;-77
2022/05/05 04:26:34;;;;;;;;;;;13.80;99.90;;;;;;5074170;28;20280;-79
2022/05/05 04:29:00;;;;;;;;;;;13.70;99.90;;;;;;5056262;28;19911;-78
2022/05/05 04:31:27;;;;;;;;;;;13.80;99.90;;;;;;5074236;28;19904;-76
2022/05/05 04:33:52;;;;;;;;;;;13.80;99.90;;;;;;5074105;28;20277;-77
2022/05/05 04:36:18;;;;;;;;;;;13.70;99.90;;;;;;5074515;28;19912;-77
2022/05/05 04:38:44;;;;;;;;;;;13.70;99.90;;;;;;5055665;28;19924;-79
2022/05/05 04:41:09;;;;;;;;;;;13.70;99.90;;;;;;5073985;28;19912;-77
2022/05/05 04:43:35;;;;;;;;;;;13.70;99.90;;;;;;5073906;28;20007;-78
2022/05/05 04:46:01;;;;;;;;;;;13.70;99.90;;;;;;5055940;28;20054;-78
2022/05/05 04:48:26;;;;;;;;;;;13.80;99.90;;;;;;5074299;28;19904;-78
2022/05/05 04:50:52;;;;;;;;;;;13.90;99.90;;;;;;5073968;28;20467;-78
2022/05/05 04:53:17;;;;;;;;;;;14.00;99.90;;;;;;5074422;28;19911;-77
2022/05/05 04:55:43;;;;;;;;;;;14.00;99.90;;;;;;5073863;28;20323;-77
2022/05/05 04:58:09;;;;;;;;;;;13.90;99.90;;;;;;5074031;28;19940;-76
2022/05/05 05:00:36;;;;;;;;;;;13.80;99.90;;;;;;5073952;28;19999;-80
2022/05/05 05:03:01;;;;;;;;;;;13.90;99.90;;;;;;5073812;28;19927;-78
2022/05/05 05:05:27;;;;;;;;;;;13.80;99.90;;;;;;5073724;28;20373;-76
2022/05/05 05:07:53;;;;;;;;;;;13.90;99.90;;;;;;5073074;28;19948;-77
2022/05/05 05:10:18;;;;;;;;;;;14.00;99.90;;;;;;5073804;28;19904;-77
2022/05/05 05:12:44;;;;;;;;;;;14.00;99.90;;;;;;5073798;28;19912;-78
2022/05/05 05:15:10;;;;;;;;;;;14.00;99.90;;;;;;5073834;28;20365;-78
2022/05/05 05:17:36;;;;;;;;;;;13.80;99.90;;;;;;5073593;28;19912;-77
2022/05/05 05:20:03;;;;;;;;;;;13.70;99.90;;;;;;5055537;28;19911;-77
2022/05/05 05:22:28;;;;;;;;;;;13.70;99.90;;;;;;5073669;28;20287;-77
2022/05/05 05:24:54;;;;;;;;;;;13.60;99.90;;;;;;5073567;28;19908;-77
2022/05/05 05:27:20;;;;;;;;;;;13.60;99.90;;;;;;5073482;28;19911;-79
2022/05/05 05:29:45;;;;;;;;;;;13.50;99.90;;;;;;5073452;28;20431;-76
2022/05/05 05:32:11;;;;;;;;;;;13.50;99.90;;;;;;5073373;28;19930;-78
2022/05/05 05:34:36;;;;;;;;;;;13.50;99.90;;;;;;5073500;28;19908;-77
2022/05/05 05:37:03;;;;;;;;;;;13.60;99.90;;;;;;5073324;28;19970;-76
2022/05/05 05:39:29;;;;;;;;;;;13.60;99.90;;;;;;5055099;28;19909;-78
2022/05/05 05:41:55;;;;;;;;;;;13.80;99.90;;;;;;5073348;28;20364;-77
2022/05/05 05:44:20;;;;;;;;;;;13.90;99.90;;;;;;5073333;28;19915;-76
2022/05/05 05:46:46;;;;;;;;;;;13.90;99.90;;;;;;5073297;28;19904;-77
2022/05/05 05:49:12;;;;;;;;;;;13.80;99.90;;;;;;5055119;28;20373;-76
2022/05/05 05:51:37;;;;;;;;;;;13.70;99.90;;;;;;5073367;28;19904;-76
2022/05/05 05:54:04;;;;;;;;;;;13.80;99.90;;;;;;5073188;28;19910;-77
2022/05/05 05:56:29;;;;;;;;;;;13.80;99.90;;;;;;5073253;28;20288;-76
2022/05/05 05:58:55;;;;;;;;;;;13.80;99.90;;;;;;5073010;28;19908;-79
2022/05/05 06:03:53;;;;;;;;;;;13.80;99.90;;;;;;5073122;28;19911;-77
2022/05/05 06:04:06;;;;;;;;;;;14.00;99.90;;;;;;5072610;28;19939;-78
2022/05/05 06:06:31;;;;;;;;;;;14.00;99.90;;;;;;5055139;28;20383;-77
2022/05/05 06:08:57;;;;;;;;;;;14.10;99.90;;;;;;5055151;28;19927;-78
2022/05/05 06:11:23;;;;;;;;;;;14.10;99.90;;;;;;5073168;28;19991;-78
2022/05/05 06:13:49;;;;;;;;;;;14.10;99.90;;;;;;5055076;28;19905;-78
2022/05/05 06:16:14;;;;;;;;;;;14.20;99.90;;;;;;5073042;28;19908;-78
2022/05/05 06:18:40;;;;;;;;;;;14.50;99.90;;;;;;5056672;28;19911;-78
2022/05/05 06:21:06;;;;;;;;;;;14.70;99.90;;;;;;5076786;28;19905;-77
2022/05/05 06:23:32;;;;;;;;;;;14.90;99.90;;;;;;5076528;28;19915;-77
2022/05/05 06:25:57;;;;;;;;;;;15.00;99.90;;;;;;5076741;28;19905;-76
2022/05/05 06:28:23;;;;;;;;;;;15.30;99.90;;;;;;5076527;28;20258;-78
2022/05/05 06:30:49;;;;;;;;;;;15.40;99.90;;;;;;5076612;28;19904;-76
2022/05/05 06:33:15;;;;;;;;;;;15.40;99.90;;;;;;5076439;28;19908;-76
2022/05/05 06:35:40;;;;;;;;;;;15.80;99.90;;;;;;5076342;28;19912;-78
2022/05/05 06:38:06;;;;;;;;;;;16.00;99.90;;;;;;5076325;28;19918;-78
2022/05/05 06:40:34;;;;;;;;;;;16.20;99.90;;;;;;5058437;28;20315;-78
2022/05/05 06:42:59;;;;;;;;;;;16.20;99.90;;;;;;5076671;28;19904;-77
2022/05/05 06:45:25;;;;;;;;;;;16.50;99.90;;;;;;5058337;28;19908;-78
2022/05/05 06:47:51;;;;;;;;;;;16.60;99.90;;;;;;5076360;28;19905;-79
2022/05/05 06:50:21;;;;;;;;;;;16.60;99.90;;;;;;5076984;28;19904;-78
2022/05/05 06:52:47;;;;;;;;;;;16.70;99.90;;;;;;5057991;28;19904;-77
2022/05/05 06:55:13;;;;;;;;;;;16.80;99.90;;;;;;5076452;28;19908;-77
2022/05/05 06:57:38;;;;;;;;;;;16.80;99.90;;;;;;5076069;28;19904;-78
2022/05/05 07:00:04;;;;;;;;;;;16.70;99.90;;;;;;5076109;28;19973;-80
2022/05/05 07:02:30;;;;;;;;;;;16.70;99.90;;;;;;5075759;28;19904;-76
2022/05/05 07:07:40;;;;;;;;;;;16.60;99.90;;;;;;5075562;28;20007;-76
2022/05/05 07:12:50;;;;;;;;;;;16.90;99.90;;;;;;5075430;28;19950;-78
2022/05/05 07:15:15;;;;;;;;;;;17.00;99.90;;;;;;5075688;28;19909;-77
2022/05/05 07:17:41;;;;;;;;;;;17.20;99.90;;;;;;5075616;28;19904;-75
2022/05/05 07:20:07;;;;;;;;;;;17.30;99.90;;;;;;5075615;28;20288;-78
2022/05/05 07:22:33;;;;;;;;;;;17.50;99.90;;;;;;5075545;28;19904;-79
2022/05/05 07:24:59;;;;;;;;;;;17.60;99.90;;;;;;5075473;28;20414;-77
2022/05/05 07:27:25;;;;;;;;;;;17.70;99.90;;;;;;5075592;28;19995;-77
2022/05/05 07:29:51;;;;;;;;;;;18.00;99.90;;;;;;5074613;28;19936;-79
2022/05/05 07:32:16;;;;;;;;;;;17.80;99.90;;;;;;5057483;28;19911;-77
2022/05/05 07:34:42;;;;;;;;;;;17.90;99.90;;;;;;5075272;28;20311;-79
2022/05/05 07:37:07;;;;;;;;;;;18.10;99.90;;;;;;5075324;28;19990;-78
2022/05/05 07:39:33;;;;;;;;;;;18.40;99.90;;;;;;5075441;28;19905;-77
2022/05/05 07:41:59;;;;;;;;;;;18.30;99.90;;;;;;5075165;28;19904;-78
2022/05/05 07:44:24;;;;;;;;;;;18.40;99.90;;;;;;5075537;28;20352;-76
2022/05/05 07:46:50;;;;;;;;;;;18.70;99.90;;;;;;5075021;28;19953;-78
2022/05/05 07:49:15;;;;;;;;;;;19.20;99.90;;;;;;5074990;28;19915;-79
2022/05/05 07:51:41;;;;;;;;;;;19.30;99.90;;;;;;5074804;28;19904;-77
2022/05/05 07:56:51;;;;;;;;;;;19.70;99.90;;;;;;5074773;28;20379;-77
2022/05/05 07:59:18;;;;;;;;;;;19.80;99.90;;;;;;5074872;28;19930;-80
2022/05/05 08:01:44;;;;;;;;;;;20.10;99.90;;;;;;5074728;28;19909;-78
2022/05/05 08:04:09;;;;;;;;;;;20.40;99.90;;;;;;5074623;28;19915;-79
2022/05/05 08:06:35;;;;;;;;;;;20.50;99.90;;;;;;5056690;28;19909;-79
2022/05/05 08:09:01;;;;;;;;;;;20.80;99.90;;;;;;5074557;28;19908;-79
2022/05/05 08:11:28;;;;;;;;;;;21.00;99.80;;;;;;5074568;28;19927;-78
2022/05/05 08:13:54;;;;;;;;;;;21.20;96.60;;;;;;5074510;28;19926;-77
2022/05/05 08:16:20;;;;;;;;;;;21.40;95.50;;;;;;5074454;28;20384;-78
2022/05/05 08:18:45;;;;;;;;;;;21.40;94.00;;;;;;5056568;28;20288;-80
2022/05/05 08:21:11;;;;;;;;;;;21.60;94.90;;;;;;5074496;28;19983;-77
2022/05/05 08:23:37;;;;;;;;;;;22.00;92.80;;;;;;5074803;28;19909;-77
2022/05/05 08:28:47;;;;;;;;;;;24.20;91.00;;;;;;5074150;28;19927;-77
2022/05/05 08:31:13;;;;;;;;;;;25.40;80.60;;;;;;5074158;28;20352;-80
2022/05/05 08:33:38;;;;;;;;;;;24.50;75.90;;;;;;5074188;28;19972;-77
2022/05/05 08:36:05;;;;;;;;;;;23.70;74.30;;;;;;5074059;28;19926;-78
2022/05/05 08:38:31;;;;;;;;;;;23.60;73.70;;;;;;5073421;28;19916;-80
2022/05/05 08:40:58;;;;;;;;;;;22.90;73.60;;;;;;5073945;28;19908;-80
2022/05/05 08:43:24;;;;;;;;;;;22.50;74.70;;;;;;5073981;28;19915;-79
2022/05/05 08:45:55;;;;;;;;;;;22.10;72.40;;;;;;5074054;28;19904;-78
2022/05/05 08:48:20;;;;;;;;;;;21.90;75.60;;;;;;5074272;28;19936;-78
2022/05/05 08:50:52;;;;;;;;;;;23.60;73.70;;;;;;5074105;28;20336;-78
2022/05/05 08:53:19;;;;;;;;;;;24.30;67.90;;;;;;5073964;28;20386;-77
2022/05/05 08:55:45;;;;;;;;;;;23.50;67.40;;;;;;5073934;28;20352;-80
2022/05/05 08:58:10;;;;;;;;;;;22.60;71.00;;;;;;5074107;28;19905;-77
2022/05/05 09:00:36;;;;;;;;;;;21.80;73.70;;;;;;5074037;28;20306;-78
2022/05/05 09:03:04;;;;;;;;;;;21.40;76.70;;;;;;5073898;28;20429;-79
2022/05/05 09:05:42;;;;;;;;;;;21.50;75.20;;;;;;5055857;28;19905;-78
2022/05/05 09:08:10;;;;;;;;;;;21.70;74.80;;;;;;5073788;28;19913;-79
2022/05/05 09:10:43;;;;;;;;;;;22.20;71.70;;;;;;5073772;28;19953;-79
2022/05/05 09:13:08;;;;;;;;;;;22.30;71.20;;;;;;5073869;28;19904;-77
2022/05/05 09:15:35;;;;;;;;;;;22.30;71.90;;;;;;5073800;28;20030;-78
2022/05/05 09:18:12;;;;;;;;;;;22.10;71.90;;;;;;5073923;28;19955;-78
2022/05/05 09:20:37;;;;;;;;;;;21.90;70.80;;;;;;5055714;28;20287;-79
2022/05/05 09:23:03;;;;;;;;;;;22.00;71.20;;;;;;5073509;28;19912;-79
2022/05/05 09:25:46;;;;;;;;;;;22.30;70.70;;;;;;5073619;28;19912;-79
2022/05/05 09:28:15;;;;;;;;;;;22.60;70.10;;;;;;5073768;28;20033;-79
2022/05/05 09:31:07;;;;;;;;;;;22.40;68.80;;;;;;5073642;28;19904;-78
2022/05/05 09:33:43;;;;;;;;;;;22.60;68.60;;;;;;5068187;28;19904;-79
2022/05/05 09:36:16;;;;;;;;;;;23.60;67.10;;;;;;5073380;28;19911;-78
2022/05/05 09:39:00;;;;;;;;;;;24.00;64.20;;;;;;5051620;28;19916;-79
2022/05/05 09:41:25;;;;;;;;;;;23.70;65.40;;;;;;5053459;28;19913;-79
2022/05/05 09:43:55;;;;;;;;;;;23.70;65.60;;;;;;5053296;28;20357;-78
2022/05/05 09:46:24;;;;;;;;;;;25.60;65.10;;;;;;5053265;28;20439;-78
2022/05/05 09:48:50;;;;;;;;;;;28.20;59.90;;;;;;5053298;28;19912;-79
2022/05/05 09:51:16;;;;;;;;;;;31.80;50.90;;;;;;5053078;28;19927;-80
2022/05/05 09:59:25;;;;;;;;;;;27.50;50.20;;;;;;5056948;28;19912;-78
2022/05/05 10:01:51;;;;;;;;;;;25.50;52.80;;;;;;5057063;28;19904;-78
2022/05/05 10:04:18;;;;;;;;;;;24.50;55.20;;;;;;5056961;28;19909;-79
2022/05/05 10:06:44;;;;;;;;;;;24.40;56.70;;;;;;5057173;28;19955;-79
2022/05/05 10:09:12;;;;;;;;;;;29.50;54.10;;;;;;5056974;28;19920;-80
2022/05/05 10:11:38;;;;;;;;;;;35.20;45.90;;;;;;5056843;28;19908;-79
2022/05/05 10:14:08;;;;;;;;;;;33.10;43.30;;;;;;5057184;28;20300;-80
2022/05/05 10:16:35;;;;;;;;;;;29.30;46.50;;;;;;5056976;28;19944;-80
2022/05/05 10:19:06;;;;;;;;;;;26.60;51.00;;;;;;5057059;28;19912;-78
2022/05/05 10:21:43;;;;;;;;;;;25.50;53.40;;;;;;5055859;28;19935;-78
2022/05/05 10:24:12;;;;;;;;;;;25.10;54.50;;;;;;5056745;28;19909;-79
2022/05/05 10:26:38;;;;;;;;;;;25.70;53.60;;;;;;5056659;28;19928;-78
2022/05/05 10:29:03;;;;;;;;;;;30.40;50.80;;;;;;5056556;28;20361;-79
2022/05/05 10:31:33;;;;;;;;;;;31.20;45.80;;;;;;5055305;28;19905;-80
2022/05/05 10:33:59;;;;;;;;;;;28.80;49.10;;;;;;5055174;28;20262;-79
2022/05/05 10:36:25;;;;;;;;;;;27.40;50.40;;;;;;5056654;28;20063;-77
2022/05/05 10:38:52;;;;;;;;;;;26.90;50.70;;;;;;5071418;28;20390;-79
2022/05/05 10:41:29;;;;;;;;;;;26.50;51.40;;;;;;5076359;28;19986;-78
2022/05/05 10:44:13;;;;;;;;;;;26.60;50.80;;;;;;5076155;28;20328;-79
2022/05/05 10:46:52;;;;;;;;;;;30.00;50.50;;;;;;5058257;28;19911;-80
2022/05/05 10:49:33;;;;;;;;;;;32.40;45.30;;;;;;5076223;28;20280;-80
2022/05/05 10:52:10;;;;;;;;;;;35.40;42.20;;;;;;5076084;28;19987;-78
2022/05/05 10:54:45;;;;;;;;;;;35.00;43.00;;;;;;5076082;28;19908;-80
2022/05/05 10:57:26;;;;;;;;;;;35.20;41.00;;;;;;5076367;28;20367;-79
2022/05/05 11:00:24;;;;;;;;;;;32.40;42.00;;;;;;5076023;28;19911;-79
2022/05/05 11:03:01;;;;;;;;;;;32.30;44.30;;;;;;5010239;28;19947;-81
2022/05/05 11:05:31;;;;;;;;;;;35.20;40.50;;;;;;5074583;28;19931;-78
2022/05/05 11:08:17;;;;;;;;;;;34.30;40.00;;;;;;5076266;28;19908;-78
2022/05/05 11:10:44;;;;;;;;;;;31.90;42.70;;;;;;5057625;28;20271;-78
2022/05/05 11:13:28;;;;;;;;;;;30.80;44.60;;;;;;5076080;28;19908;-79
2022/05/05 11:21:36;;;;;;;;;;;33.30;44.50;;;;;;5075603;28;19912;-81
2022/05/05 11:24:02;;;;;;;;;;;38.20;40.20;;;;;;5075729;28;19908;-80
2022/05/05 11:26:29;;;;;;;;;;;38.70;37.20;;;;;;5075634;28;20372;-80
2022/05/05 11:28:58;;;;;;;;;;;39.20;38.00;;;;;;5075925;28;19904;-77
2022/05/05 11:31:25;;;;;;;;;;;39.20;37.50;;;;;;5075458;28;19904;-79
2022/05/05 11:33:54;;;;;;;;;;;35.60;38.20;;;;;;5075821;28;19911;-79
2022/05/05 11:36:21;;;;;;;;;;;33.00;41.80;;;;;;5075767;28;19904;-80
2022/05/05 11:38:47;;;;;;;;;;;30.20;43.50;;;;;;5075281;28;20287;-79
2022/05/05 11:41:16;;;;;;;;;;;28.60;46.30;;;;;;5075317;28;19908;-78
2022/05/05 11:46:26;;;;;;;;;;;34.20;43.90;;;;;;5074889;28;19914;-79
2022/05/05 11:48:56;;;;;;;;;;;38.10;39.30;;;;;;5075386;28;19995;-80
2022/05/05 11:51:25;;;;;;;;;;;40.90;37.00;;;;;;5075208;28;19904;-81
2022/05/05 11:54:04;;;;;;;;;;;40.10;35.80;;;;;;5075395;28;19904;-77
2022/05/05 11:56:30;;;;;;;;;;;35.80;37.80;;;;;;5075569;28;19904;-78
2022/05/05 12:01:52;;;;;;;;;;;34.20;42.50;;;;;;5075042;28;19911;-79
2022/05/05 12:04:18;;;;;;;;;;;39.50;37.50;;;;;;5074921;28;19908;-79
2022/05/05 12:06:44;;;;;;;;;;;42.00;35.10;;;;;;5075073;28;19983;-79
2022/05/05 12:09:09;;;;;;;;;;;43.30;34.40;;;;;;5074883;28;20327;-79
2022/05/05 12:11:35;;;;;;;;;;;44.60;33.20;;;;;;5074509;28;19908;-79
2022/05/05 12:14:09;;;;;;;;;;;46.10;32.00;;;;;;5074521;28;19912;-80
2022/05/05 12:16:35;;;;;;;;;;;45.70;32.10;;;;;;5074116;28;19905;-77
2022/05/05 12:19:10;;;;;;;;;;;41.90;32.90;;;;;;5074361;28;19984;-76
2022/05/05 12:21:36;;;;;;;;;;;43.40;33.40;;;;;;5074568;28;19915;-77
2022/05/05 12:24:03;;;;;;;;;;;44.90;32.50;;;;;;5074197;28;20050;-76
2022/05/05 12:26:33;;;;;;;;;;;45.20;31.30;;;;;;5074227;28;19995;-78
2022/05/05 12:28:59;;;;;;;;;;;45.70;30.90;;;;;;5074223;28;19911;-76
2022/05/05 12:31:25;;;;;;;;;;;44.50;31.00;;;;;;5074170;28;20375;-77
2022/05/05 12:33:51;;;;;;;;;;;45.30;30.90;;;;;;5074313;28;19911;-76
2022/05/05 12:36:17;;;;;;;;;;;45.50;31.10;;;;;;5074282;28;19904;-76
2022/05/05 12:38:43;;;;;;;;;;;41.00;32.50;;;;;;5073849;28;20352;-78
2022/05/05 12:41:10;;;;;;;;;;;38.80;33.70;;;;;;5074063;28;19947;-77
2022/05/05 12:43:36;;;;;;;;;;;35.90;36.30;;;;;;5073954;28;19912;-78
2022/05/05 12:46:02;;;;;;;;;;;37.90;34.20;;;;;;5074074;28;19912;-79
2022/05/05 12:48:28;;;;;;;;;;;41.60;32.80;;;;;;5073923;28;19904;-79
2022/05/05 12:50:54;;;;;;;;;;;43.40;32.40;;;;;;5073943;28;19965;-79
2022/05/05 13:01:35;;;;;;;;;;;44.10;31.70;;;;;;5073592;28;19911;-79
2022/05/05 13:04:05;;;;;;;;;;;44.20;31.20;;;;;;5073645;28;20276;-78
2022/05/05 13:06:30;;;;;;;;;;;44.80;31.90;;;;;;5055761;28;20432;-78
2022/05/05 13:08:56;;;;;;;;;;;44.50;31.20;;;;;;5073731;28;19955;-80
2022/05/05 13:11:22;;;;;;;;;;;44.50;31.80;;;;;;5073627;28;19908;-80
2022/05/05 13:13:49;;;;;;;;;;;44.70;31.30;;;;;;5073853;28;19904;-80
2022/05/05 13:16:15;;;;;;;;;;;44.40;31.00;;;;;;5073742;28;19995;-78
2022/05/05 13:18:41;;;;;;;;;;;44.90;31.00;;;;;;5073780;28;19939;-79
2022/05/05 13:21:06;;;;;;;;;;;44.90;31.50;;;;;;5073642;28;19971;-78
2022/05/05 13:23:32;;;;;;;;;;;41.40;32.40;;;;;;5073590;28;19909;-79
2022/05/05 13:25:58;;;;;;;;;;;38.10;35.60;;;;;;5073588;28;20368;-78
2022/05/05 13:28:24;;;;;;;;;;;38.70;34.40;;;;;;5074931;28;19911;-78
2022/05/05 13:30:50;;;;;;;;;;;40.30;33.10;;;;;;5077907;28;19945;-79
2022/05/05 13:33:15;;;;;;;;;;;41.30;32.50;;;;;;5077580;28;19909;-78
2022/05/05 13:35:41;;;;;;;;;;;40.40;32.70;;;;;;5077617;28;19987;-78
2022/05/05 13:38:07;;;;;;;;;;;40.40;32.80;;;;;;5077310;28;19917;-79
2022/05/05 13:40:32;;;;;;;;;;;40.40;32.90;;;;;;5077851;28;19904;-79
2022/05/05 13:42:58;;;;;;;;;;;39.00;33.50;;;;;;5077485;28;19904;-77
2022/05/05 13:45:24;;;;;;;;;;;38.20;34.70;;;;;;5077495;28;20003;-80
2022/05/05 13:47:50;;;;;;;;;;;36.80;34.30;;;;;;5077549;28;19908;-79
2022/05/05 13:50:16;;;;;;;;;;;35.30;35.10;;;;;;5077468;28;19912;-79
2022/05/05 13:52:44;;;;;;;;;;;34.30;36.40;;;;;;5077545;28;19991;-78
2022/05/05 13:55:14;;;;;;;;;;;34.10;37.20;;;;;;5077464;28;19910;-78
2022/05/05 13:57:43;;;;;;;;;;;33.80;37.70;;;;;;5077248;28;19904;-79
2022/05/05 14:00:15;;;;;;;;;;;33.30;38.00;;;;;;5077267;28;20002;-80
2022/05/05 14:02:41;;;;;;;;;;;33.40;38.00;;;;;;5077167;28;19927;-77
2022/05/05 14:05:07;;;;;;;;;;;32.70;38.90;;;;;;5059128;28;20356;-79
2022/05/05 14:13:01;;;;;;;;;;;34.60;37.60;;;;;;5076610;28;20399;-78
2022/05/05 14:15:28;;;;;;;;;;;33.60;37.80;;;;;;5076809;28;19904;-78
2022/05/05 14:17:53;;;;;;;;;;;32.10;39.50;;;;;;5077029;28;20372;-79
2022/05/05 14:20:19;;;;;;;;;;;31.60;39.60;;;;;;5076778;28;19904;-77
2022/05/05 14:22:45;;;;;;;;;;;32.90;39.30;;;;;;5076637;28;20322;-79
2022/05/05 14:25:11;;;;;;;;;;;33.60;38.70;;;;;;5076532;28;19912;-77
2022/05/05 14:27:38;;;;;;;;;;;34.20;38.90;;;;;;5076572;28;19908;-79
2022/05/05 14:30:04;;;;;;;;;;;33.30;38.90;;;;;;5076621;28;19995;-77
2022/05/05 14:32:29;;;;;;;;;;;33.30;39.30;;;;;;5076498;28;20280;-78
2022/05/05 14:34:55;;;;;;;;;;;32.10;39.20;;;;;;5076846;28;19908;-80
2022/05/05 14:37:21;;;;;;;;;;;31.40;40.10;;;;;;5076398;28;20043;-77
2022/05/05 14:39:46;;;;;;;;;;;31.30;40.60;;;;;;5076282;28;19904;-80
2022/05/05 14:42:12;;;;;;;;;;;31.00;40.60;;;;;;5076354;28;19904;-77
2022/05/05 14:44:38;;;;;;;;;;;30.30;41.20;;;;;;5076087;28;19915;-78
2022/05/05 14:47:07;;;;;;;;;;;30.20;42.20;;;;;;5058219;28;19943;-80
2022/05/05 14:49:32;;;;;;;;;;;31.40;41.80;;;;;;5076137;28;19954;-78
2022/05/05 14:51:58;;;;;;;;;;;31.90;40.60;;;;;;5076154;28;19971;-79
2022/05/05 14:54:24;;;;;;;;;;;32.80;40.60;;;;;;5076158;28;19911;-79
2022/05/05 14:56:49;;;;;;;;;;;33.70;40.20;;;;;;5076042;28;20414;-80
2022/05/05 14:59:15;;;;;;;;;;;34.10;38.70;;;;;;5076444;28;19912;-78
2022/05/05 15:01:40;;;;;;;;;;;34.30;38.80;;;;;;5075940;28;20011;-78
2022/05/05 15:04:06;;;;;;;;;;;34.30;38.50;;;;;;5076049;28;19975;-78
2022/05/05 15:06:32;;;;;;;;;;;34.00;38.40;;;;;;5075901;28;19926;-79
2022/05/05 15:08:58;;;;;;;;;;;33.50;38.70;;;;;;5057764;28;19908;-78